sensor_id;sensor_type;location;lat;lon;timestamp;temperature;humidity
11744;DHT22;5929;51.906;7.674;2022-09-09T00:00:00;16.50;99.90
11744;DHT22;5929;51.906;7.674;2022-09-09T00:02:28;16.50;99.90
11744;DHT22;5929;51.906;7.674;2022-09-09T00:04:59;16.50;99.90
11744;DHT22;5929;51.906;7.674;2022-09-09T00:07:35;16.50;99.90
11744;DHT22;5929;51.906;7.674;2022-09-09T00:10:13;16.60;99.90
11744;DHT22;5929;51.906;7.674;2022-09-09T00:12:51;16.60;99.90
11744;DHT22;5929;51.906;7.674;2022-09-09T00:15:22;16.60;99.90
11744;DHT22;5929;51.906;7.674;2022-09-09T00:17:54;16.60;99.90
11744;DHT22;5929;51.906;7.674;2022-09-09T00:20:29;16.70;99.90
11744;DHT22;5929;51.906;7.674;2022-09-09T00:23:03;16.70;99.90
11744;DHT22;5929;51.906;7.674;2022-09-09T00:25:37;16.70;99.90
11744;DHT22;5929;51.906;7.674;2022-09-09T00:28:14;16.70;99.90
11744;DHT22;5929;51.906;7.674;2022-09-09T00:30:43;16.70;99.90
11744;DHT22;5929;51.906;7.674;2022-09-09T00:33:15;16.60;99.90
11744;DHT22;5929;51.906;7.674;2022-09-09T00:35:48;16.50;99.90
11744;DHT22;5929;51.906;7.674;2022-09-09T00:38:18;16.40;99.90
11744;DHT22;5929;51.906;7.674;2022-09-09T00:40:49;16.30;99.90
11744;DHT22;5929;51.906;7.674;2022-09-09T00:43:26;16.20;99.90
11744;DHT22;5929;51.906;7.674;2022-09-09T00:46:14;16.10;99.90
11744;DHT22;5929;51.906;7.674;2022-09-09T00:48:54;15.90;99.90
11744;DHT22;5929;51.906;7.674;2022-09-09T00:51:30;15.90;99.90
11744;DHT22;5929;51.906;7.674;2022-09-09T00:54:22;15.90;99.90
11744;DHT22;5929;51.906;7.674;2022-09-09T00:57:04;15.90;99.90
11744;DHT22;5929;51.906;7.674;2022-09-09T00:59:45;15.90;99.90
11744;DHT22;5929;51.906;7.674;2022-09-09T01:02:21;15.80;99.90
11744;DHT22;5929;51.906;7.674;2022-09-09T01:04:48;15.80;99.90
11744;DHT22;5929;51.906;7.674;2022-09-09T01:07:17;15.80;99.90
11744;DHT22;5929;51.906;7.674;2022-09-09T01:09:56;15.80;99.90
11744;DHT22;5929;51.906;7.674;2022-09-09T01:12:34;15.80;99.90
11744;DHT22;5929;51.906;7.674;2022-09-09T01:15:09;15.80;99.90
11744;DHT22;5929;51.906;7.674;2022-09-09T01:17:46;15.70;99.90
11744;DHT22;5929;51.906;7.674;2022-09-09T01:20:18;15.70;99.90
11744;DHT22;5929;51.906;7.674;2022-09-09T01:22:59;15.60;99.90
11744;DHT22;5929;51.906;7.674;2022-09-09T01:28:32;15.50;99.90
11744;DHT22;5929;51.906;7.674;2022-09-09T01:31:02;15.50;99.90
11744;DHT22;5929;51.906;7.674;2022-09-09T01:33:30;15.50;99.90
11744;DHT22;5929;51.906;7.674;2022-09-09T01:36:00;15.40;99.90
11744;DHT22;5929;51.906;7.674;2022-09-09T01:38:34;15.40;99.90
11744;DHT22;5929;51.906;7.674;2022-09-09T01:41:03;15.30;99.90
11744;DHT22;5929;51.906;7.674;2022-09-09T01:43:31;15.40;99.90
11744;DHT22;5929;51.906;7.674;2022-09-09T01:46:00;15.40;99.90
11744;DHT22;5929;51.906;7.674;2022-09-09T01:48:28;15.40;99.90
11744;DHT22;5929;51.906;7.674;2022-09-09T01:50:55;15.30;99.90
11744;DHT22;5929;51.906;7.674;2022-09-09T01:53:24;15.30;99.90
11744;DHT22;5929;51.906;7.674;2022-09-09T01:56:02;15.30;99.90
11744;DHT22;5929;51.906;7.674;2022-09-09T01:58:42;15.30;99.90
11744;DHT22;5929;51.906;7.674;2022-09-09T02:01:17;15.30;99.90
11744;DHT22;5929;51.906;7.674;2022-09-09T02:03:47;15.30;99.90
11744;DHT22;5929;51.906;7.674;2022-09-09T02:06:25;15.30;99.90
11744;DHT22;5929;51.906;7.674;2022-09-09T02:08:56;15.30;99.90
11744;DHT22;5929;51.906;7.674;2022-09-09T02:11:26;15.30;99.90
11744;DHT22;5929;51.906;7.674;2022-09-09T02:14:00;15.30;99.90
11744;DHT22;5929;51.906;7.674;2022-09-09T02:16:31;15.30;99.90
11744;DHT22;5929;51.906;7.674;2022-09-09T02:19:02;15.30;99.90
11744;DHT22;5929;51.906;7.674;2022-09-09T02:21:31;15.20;99.90
11744;DHT22;5929;51.906;7.674;2022-09-09T02:24:03;15.30;99.90
11744;DHT22;5929;51.906;7.674;2022-09-09T02:26:31;15.30;99.90
11744;DHT22;5929;51.906;7.674;2022-09-09T02:29:03;15.30;99.90
11744;DHT22;5929;51.906;7.674;2022-09-09T02:31:33;15.30;99.90
11744;DHT22;5929;51.906;7.674;2022-09-09T02:34:03;15.40;99.90
11744;DHT22;5929;51.906;7.674;2022-09-09T02:36:34;15.30;99.90
11744;DHT22;5929;51.906;7.674;2022-09-09T02:39:03;15.20;99.90
11744;DHT22;5929;51.906;7.674;2022-09-09T02:41:34;15.20;99.90
11744;DHT22;5929;51.906;7.674;2022-09-09T02:44:05;15.20;99.90
11744;DHT22;5929;51.906;7.674;2022-09-09T02:46:56;15.30;99.90
11744;DHT22;5929;51.906;7.674;2022-09-09T02:49:31;15.30;99.90
11744;DHT22;5929;51.906;7.674;2022-09-09T02:52:06;15.30;99.90
11744;DHT22;5929;51.906;7.674;2022-09-09T02:54:35;15.20;99.90
11744;DHT22;5929;51.906;7.674;2022-09-09T02:57:08;15.20;99.90
11744;DHT22;5929;51.906;7.674;2022-09-09T02:59:38;15.20;99.90
11744;DHT22;5929;51.906;7.674;2022-09-09T03:02:05;15.20;99.90
11744;DHT22;5929;51.906;7.674;2022-09-09T03:04:32;15.20;99.90
11744;DHT22;5929;51.906;7.674;2022-09-09T03:06:59;15.10;99.90
11744;DHT22;5929;51.906;7.674;2022-09-09T03:09:26;15.10;99.90
11744;DHT22;5929;51.906;7.674;2022-09-09T03:11:53;15.10;99.90
11744;DHT22;5929;51.906;7.674;2022-09-09T03:14:20;15.10;99.90
11744;DHT22;5929;51.906;7.674;2022-09-09T03:16:51;15.00;99.90
11744;DHT22;5929;51.906;7.674;2022-09-09T03:19:18;15.10;99.90
11744;DHT22;5929;51.906;7.674;2022-09-09T03:21:45;15.00;99.90
11744;DHT22;5929;51.906;7.674;2022-09-09T03:24:13;15.00;99.90
11744;DHT22;5929;51.906;7.674;2022-09-09T03:26:40;15.00;99.90
11744;DHT22;5929;51.906;7.674;2022-09-09T03:29:10;15.00;99.90
11744;DHT22;5929;51.906;7.674;2022-09-09T03:31:37;15.00;99.90
11744;DHT22;5929;51.906;7.674;2022-09-09T03:34:06;15.10;99.90
11744;DHT22;5929;51.906;7.674;2022-09-09T03:36:33;15.00;99.90
11744;DHT22;5929;51.906;7.674;2022-09-09T03:39:00;15.10;99.90
11744;DHT22;5929;51.906;7.674;2022-09-09T03:41:30;15.00;99.90
11744;DHT22;5929;51.906;7.674;2022-09-09T03:43:57;15.00;99.90
11744;DHT22;5929;51.906;7.674;2022-09-09T03:46:26;14.90;99.90
11744;DHT22;5929;51.906;7.674;2022-09-09T03:48:53;14.90;99.90
11744;DHT22;5929;51.906;7.674;2022-09-09T03:51:21;14.90;99.90
11744;DHT22;5929;51.906;7.674;2022-09-09T03:53:48;15.00;99.90
11744;DHT22;5929;51.906;7.674;2022-09-09T03:56:15;14.90;99.90
11744;DHT22;5929;51.906;7.674;2022-09-09T03:58:42;14.80;99.90
11744;DHT22;5929;51.906;7.674;2022-09-09T04:01:12;14.80;99.90
11744;DHT22;5929;51.906;7.674;2022-09-09T04:03:40;14.80;99.90
11744;DHT22;5929;51.906;7.674;2022-09-09T04:06:08;14.70;99.90
11744;DHT22;5929;51.906;7.674;2022-09-09T04:08:38;14.70;99.90
11744;DHT22;5929;51.906;7.674;2022-09-09T04:11:05;14.70;99.90
11744;DHT22;5929;51.906;7.674;2022-09-09T04:13:33;14.70;99.90
11744;DHT22;5929;51.906;7.674;2022-09-09T04:16:02;14.80;99.90
11744;DHT22;5929;51.906;7.674;2022-09-09T04:18:30;14.80;99.90
11744;DHT22;5929;51.906;7.674;2022-09-09T04:20:57;14.90;99.90
11744;DHT22;5929;51.906;7.674;2022-09-09T04:23:24;15.00;99.90
11744;DHT22;5929;51.906;7.674;2022-09-09T04:25:55;15.00;99.90
11744;DHT22;5929;51.906;7.674;2022-09-09T04:28:24;15.10;99.90
11744;DHT22;5929;51.906;7.674;2022-09-09T04:30:51;15.00;99.90
11744;DHT22;5929;51.906;7.674;2022-09-09T04:33:19;15.00;99.90
11744;DHT22;5929;51.906;7.674;2022-09-09T04:35:47;15.10;99.90
11744;DHT22;5929;51.906;7.674;2022-09-09T04:38:15;15.10;99.90
11744;DHT22;5929;51.906;7.674;2022-09-09T04:40:42;15.10;99.90
11744;DHT22;5929;51.906;7.674;2022-09-09T04:43:10;15.10;99.90
11744;DHT22;5929;51.906;7.674;2022-09-09T04:45:37;15.10;99.90
11744;DHT22;5929;51.906;7.674;2022-09-09T04:48:06;15.00;99.90
11744;DHT22;5929;51.906;7.674;2022-09-09T04:50:33;15.00;99.90
11744;DHT22;5929;51.906;7.674;2022-09-09T04:53:00;15.00;99.90
11744;DHT22;5929;51.906;7.674;2022-09-09T04:55:28;15.10;99.90
11744;DHT22;5929;51.906;7.674;2022-09-09T04:57:57;15.10;99.90
11744;DHT22;5929;51.906;7.674;2022-09-09T05:00:30;15.10;99.90
11744;DHT22;5929;51.906;7.674;2022-09-09T05:02:57;15.20;99.90
11744;DHT22;5929;51.906;7.674;2022-09-09T05:05:24;15.20;99.90
11744;DHT22;5929;51.906;7.674;2022-09-09T05:07:51;15.20;99.90
11744;DHT22;5929;51.906;7.674;2022-09-09T05:10:18;15.20;99.90
11744;DHT22;5929;51.906;7.674;2022-09-09T05:12:52;15.20;99.90
11744;DHT22;5929;51.906;7.674;2022-09-09T05:15:19;15.20;99.90
11744;DHT22;5929;51.906;7.674;2022-09-09T05:17:47;15.30;99.90
11744;DHT22;5929;51.906;7.674;2022-09-09T05:20:14;15.30;99.90
11744;DHT22;5929;51.906;7.674;2022-09-09T05:22:42;15.30;99.90
11744;DHT22;5929;51.906;7.674;2022-09-09T05:25:09;15.30;99.90
11744;DHT22;5929;51.906;7.674;2022-09-09T05:27:36;15.40;99.90
11744;DHT22;5929;51.906;7.674;2022-09-09T05:30:04;15.40;99.90
11744;DHT22;5929;51.906;7.674;2022-09-09T05:32:31;15.40;99.90
11744;DHT22;5929;51.906;7.674;2022-09-09T05:35:01;15.40;99.90
11744;DHT22;5929;51.906;7.674;2022-09-09T05:37:28;15.50;99.90
11744;DHT22;5929;51.906;7.674;2022-09-09T05:39:58;15.50;99.90
11744;DHT22;5929;51.906;7.674;2022-09-09T05:42:30;15.60;99.90
11744;DHT22;5929;51.906;7.674;2022-09-09T05:44:57;15.60;99.90
11744;DHT22;5929;51.906;7.674;2022-09-09T05:47:24;15.60;99.90
11744;DHT22;5929;51.906;7.674;2022-09-09T05:49:53;15.60;99.90
11744;DHT22;5929;51.906;7.674;2022-09-09T05:52:22;15.60;99.90
11744;DHT22;5929;51.906;7.674;2022-09-09T05:54:49;15.60;99.90
11744;DHT22;5929;51.906;7.674;2022-09-09T05:57:15;15.70;99.90
11744;DHT22;5929;51.906;7.674;2022-09-09T05:59:44;15.70;99.90
11744;DHT22;5929;51.906;7.674;2022-09-09T06:02:11;15.70;99.90
11744;DHT22;5929;51.906;7.674;2022-09-09T06:04:39;15.70;99.90
11744;DHT22;5929;51.906;7.674;2022-09-09T06:07:05;15.70;99.90
11744;DHT22;5929;51.906;7.674;2022-09-09T06:09:34;15.80;99.90
11744;DHT22;5929;51.906;7.674;2022-09-09T06:12:01;15.80;99.90
11744;DHT22;5929;51.906;7.674;2022-09-09T06:14:27;15.90;99.90
11744;DHT22;5929;51.906;7.674;2022-09-09T06:16:56;15.90;99.90
11744;DHT22;5929;51.906;7.674;2022-09-09T06:19:23;15.90;99.90
11744;DHT22;5929;51.906;7.674;2022-09-09T06:21:52;16.00;99.90
11744;DHT22;5929;51.906;7.674;2022-09-09T06:24:19;16.00;99.90
11744;DHT22;5929;51.906;7.674;2022-09-09T06:26:47;16.00;99.90
11744;DHT22;5929;51.906;7.674;2022-09-09T06:29:14;16.10;99.90
11744;DHT22;5929;51.906;7.674;2022-09-09T06:31:40;16.10;99.90
11744;DHT22;5929;51.906;7.674;2022-09-09T06:34:08;16.20;99.90
11744;DHT22;5929;51.906;7.674;2022-09-09T06:36:37;16.20;99.90
11744;DHT22;5929;51.906;7.674;2022-09-09T06:39:04;16.20;99.90
11744;DHT22;5929;51.906;7.674;2022-09-09T06:41:32;16.20;99.90
11744;DHT22;5929;51.906;7.674;2022-09-09T06:44:01;16.20;99.90
11744;DHT22;5929;51.906;7.674;2022-09-09T06:46:29;16.30;99.90
11744;DHT22;5929;51.906;7.674;2022-09-09T06:48:58;16.30;99.90
11744;DHT22;5929;51.906;7.674;2022-09-09T06:51:27;16.30;99.90
11744;DHT22;5929;51.906;7.674;2022-09-09T06:53:55;16.40;99.90
11744;DHT22;5929;51.906;7.674;2022-09-09T06:56:24;16.50;99.90
11744;DHT22;5929;51.906;7.674;2022-09-09T06:58:52;16.50;99.90
11744;DHT22;5929;51.906;7.674;2022-09-09T07:01:22;16.50;99.90
11744;DHT22;5929;51.906;7.674;2022-09-09T07:03:51;16.60;99.90
11744;DHT22;5929;51.906;7.674;2022-09-09T07:06:20;16.60;99.90
11744;DHT22;5929;51.906;7.674;2022-09-09T07:08:49;16.60;99.90
11744;DHT22;5929;51.906;7.674;2022-09-09T07:11:17;16.70;99.90
11744;DHT22;5929;51.906;7.674;2022-09-09T07:13:45;16.80;99.90
11744;DHT22;5929;51.906;7.674;2022-09-09T07:16:14;16.80;99.90
11744;DHT22;5929;51.906;7.674;2022-09-09T07:18:42;16.80;99.90
11744;DHT22;5929;51.906;7.674;2022-09-09T07:21:11;16.80;99.90
11744;DHT22;5929;51.906;7.674;2022-09-09T07:23:39;16.80;99.90
11744;DHT22;5929;51.906;7.674;2022-09-09T07:26:09;16.80;99.90
11744;DHT22;5929;51.906;7.674;2022-09-09T07:28:36;16.70;99.90
11744;DHT22;5929;51.906;7.674;2022-09-09T07:31:04;16.70;99.90
11744;DHT22;5929;51.906;7.674;2022-09-09T07:33:32;16.70;99.90
11744;DHT22;5929;51.906;7.674;2022-09-09T07:36:04;16.70;99.90
11744;DHT22;5929;51.906;7.674;2022-09-09T07:38:37;16.80;99.90
11744;DHT22;5929;51.906;7.674;2022-09-09T07:41:05;16.80;99.90
11744;DHT22;5929;51.906;7.674;2022-09-09T07:43:34;16.90;99.90
11744;DHT22;5929;51.906;7.674;2022-09-09T07:46:01;17.00;99.90
11744;DHT22;5929;51.906;7.674;2022-09-09T07:48:28;17.10;99.90
11744;DHT22;5929;51.906;7.674;2022-09-09T07:51:07;17.10;99.90
11744;DHT22;5929;51.906;7.674;2022-09-09T07:53:36;17.20;99.90
11744;DHT22;5929;51.906;7.674;2022-09-09T07:56:05;17.30;99.90
11744;DHT22;5929;51.906;7.674;2022-09-09T07:58:32;17.50;99.90
11744;DHT22;5929;51.906;7.674;2022-09-09T08:00:59;17.60;99.90
11744;DHT22;5929;51.906;7.674;2022-09-09T08:03:26;17.80;99.90
11744;DHT22;5929;51.906;7.674;2022-09-09T08:05:52;17.90;99.90
11744;DHT22;5929;51.906;7.674;2022-09-09T08:08:21;17.90;99.90
11744;DHT22;5929;51.906;7.674;2022-09-09T08:10:47;17.90;99.90
11744;DHT22;5929;51.906;7.674;2022-09-09T08:13:14;17.90;99.90
11744;DHT22;5929;51.906;7.674;2022-09-09T08:15:42;17.90;99.90
11744;DHT22;5929;51.906;7.674;2022-09-09T08:18:09;17.90;99.90
11744;DHT22;5929;51.906;7.674;2022-09-09T08:20:36;17.90;99.90
11744;DHT22;5929;51.906;7.674;2022-09-09T08:23:04;18.00;99.90
11744;DHT22;5929;51.906;7.674;2022-09-09T08:25:32;18.10;99.90
11744;DHT22;5929;51.906;7.674;2022-09-09T08:27:59;18.00;99.90
11744;DHT22;5929;51.906;7.674;2022-09-09T08:30:27;18.10;99.90
11744;DHT22;5929;51.906;7.674;2022-09-09T08:32:53;18.20;99.90
11744;DHT22;5929;51.906;7.674;2022-09-09T08:35:20;18.30;99.90
11744;DHT22;5929;51.906;7.674;2022-09-09T08:37:47;18.40;99.90
11744;DHT22;5929;51.906;7.674;2022-09-09T08:40:22;18.40;99.90
11744;DHT22;5929;51.906;7.674;2022-09-09T08:42:55;18.60;99.90
11744;DHT22;5929;51.906;7.674;2022-09-09T08:45:33;18.60;99.90
11744;DHT22;5929;51.906;7.674;2022-09-09T08:48:12;18.60;99.90
11744;DHT22;5929;51.906;7.674;2022-09-09T08:50:41;18.70;99.90
11744;DHT22;5929;51.906;7.674;2022-09-09T08:53:12;18.80;99.90
11744;DHT22;5929;51.906;7.674;2022-09-09T08:55:45;19.00;99.90
11744;DHT22;5929;51.906;7.674;2022-09-09T08:58:17;19.10;99.90
11744;DHT22;5929;51.906;7.674;2022-09-09T09:01:15;19.20;99.90
11744;DHT22;5929;51.906;7.674;2022-09-09T09:03:50;19.30;99.90
11744;DHT22;5929;51.906;7.674;2022-09-09T09:06:26;19.30;99.90
11744;DHT22;5929;51.906;7.674;2022-09-09T09:09:02;19.40;99.90
11744;DHT22;5929;51.906;7.674;2022-09-09T09:11:35;19.50;99.90
11744;DHT22;5929;51.906;7.674;2022-09-09T09:14:09;19.60;99.90
11744;DHT22;5929;51.906;7.674;2022-09-09T09:16:44;19.60;99.90
11744;DHT22;5929;51.906;7.674;2022-09-09T09:19:15;19.60;99.90
11744;DHT22;5929;51.906;7.674;2022-09-09T09:21:43;19.60;99.90
11744;DHT22;5929;51.906;7.674;2022-09-09T09:24:16;19.50;99.90
11744;DHT22;5929;51.906;7.674;2022-09-09T09:26:44;19.40;99.90
11744;DHT22;5929;51.906;7.674;2022-09-09T09:29:15;19.40;99.90
11744;DHT22;5929;51.906;7.674;2022-09-09T09:31:44;19.30;99.90
11744;DHT22;5929;51.906;7.674;2022-09-09T09:34:13;19.30;99.90
11744;DHT22;5929;51.906;7.674;2022-09-09T09:36:45;19.60;99.90
11744;DHT22;5929;51.906;7.674;2022-09-09T09:39:23;19.80;99.90
11744;DHT22;5929;51.906;7.674;2022-09-09T09:41:51;20.00;99.90
11744;DHT22;5929;51.906;7.674;2022-09-09T09:44:25;20.00;99.90
11744;DHT22;5929;51.906;7.674;2022-09-09T09:46:53;20.10;99.90
11744;DHT22;5929;51.906;7.674;2022-09-09T09:49:31;20.20;99.90
11744;DHT22;5929;51.906;7.674;2022-09-09T09:52:06;20.30;99.90
11744;DHT22;5929;51.906;7.674;2022-09-09T09:54:42;20.10;99.90
11744;DHT22;5929;51.906;7.674;2022-09-09T09:57:10;20.00;99.90
11744;DHT22;5929;51.906;7.674;2022-09-09T09:59:41;19.90;99.90
11744;DHT22;5929;51.906;7.674;2022-09-09T10:02:20;19.90;99.90
11744;DHT22;5929;51.906;7.674;2022-09-09T10:05:00;20.00;99.90
11744;DHT22;5929;51.906;7.674;2022-09-09T10:07:27;20.20;99.90
11744;DHT22;5929;51.906;7.674;2022-09-09T10:09:56;20.40;99.90
11744;DHT22;5929;51.906;7.674;2022-09-09T10:12:33;20.60;99.90
11744;DHT22;5929;51.906;7.674;2022-09-09T10:15:10;20.80;99.50
11744;DHT22;5929;51.906;7.674;2022-09-09T10:17:51;20.80;97.80
11744;DHT22;5929;51.906;7.674;2022-09-09T10:20:32;20.80;97.00
11744;DHT22;5929;51.906;7.674;2022-09-09T10:23:08;20.80;97.30
11744;DHT22;5929;51.906;7.674;2022-09-09T10:25:54;20.70;98.10
11744;DHT22;5929;51.906;7.674;2022-09-09T10:28:41;20.80;97.70
11744;DHT22;5929;51.906;7.674;2022-09-09T10:31:19;21.00;97.30
11744;DHT22;5929;51.906;7.674;2022-09-09T10:33:51;21.10;97.40
11744;DHT22;5929;51.906;7.674;2022-09-09T10:36:20;21.10;97.30
11744;DHT22;5929;51.906;7.674;2022-09-09T10:38:53;21.00;97.50
11744;DHT22;5929;51.906;7.674;2022-09-09T10:41:34;20.80;97.40
11744;DHT22;5929;51.906;7.674;2022-09-09T10:44:27;20.40;99.90
11744;DHT22;5929;51.906;7.674;2022-09-09T10:47:19;19.70;99.90
11744;DHT22;5929;51.906;7.674;2022-09-09T10:50:02;19.40;99.90
11744;DHT22;5929;51.906;7.674;2022-09-09T10:52:36;19.30;99.90
11744;DHT22;5929;51.906;7.674;2022-09-09T10:55:13;19.60;99.90
11744;DHT22;5929;51.906;7.674;2022-09-09T10:57:43;20.00;99.90
11744;DHT22;5929;51.906;7.674;2022-09-09T11:00:16;20.60;99.90
11744;DHT22;5929;51.906;7.674;2022-09-09T11:02:49;21.00;98.20
11744;DHT22;5929;51.906;7.674;2022-09-09T11:05:20;21.00;97.70
11744;DHT22;5929;51.906;7.674;2022-09-09T11:07:51;20.90;97.30
11744;DHT22;5929;51.906;7.674;2022-09-09T11:10:24;20.60;97.20
11744;DHT22;5929;51.906;7.674;2022-09-09T11:12:56;20.60;96.70
11744;DHT22;5929;51.906;7.674;2022-09-09T11:15:29;20.70;96.10
11744;DHT22;5929;51.906;7.674;2022-09-09T11:18:01;21.70;94.80
11744;DHT22;5929;51.906;7.674;2022-09-09T11:20:31;23.10;91.50
11744;DHT22;5929;51.906;7.674;2022-09-09T11:23:01;23.80;88.00
11744;DHT22;5929;51.906;7.674;2022-09-09T11:25:32;24.10;86.90
11744;DHT22;5929;51.906;7.674;2022-09-09T11:28:17;24.40;86.30
11744;DHT22;5929;51.906;7.674;2022-09-09T11:30:59;24.70;83.80
11744;DHT22;5929;51.906;7.674;2022-09-09T11:36:36;23.10;88.70
11744;DHT22;5929;51.906;7.674;2022-09-09T11:39:26;22.30;90.00
11744;DHT22;5929;51.906;7.674;2022-09-09T11:42:06;21.80;90.30
11744;DHT22;5929;51.906;7.674;2022-09-09T11:44:36;21.50;92.10
11744;DHT22;5929;51.906;7.674;2022-09-09T11:47:03;21.50;91.90
11744;DHT22;5929;51.906;7.674;2022-09-09T11:49:42;21.30;91.60
11744;DHT22;5929;51.906;7.674;2022-09-09T11:52:11;21.40;91.70
11744;DHT22;5929;51.906;7.674;2022-09-09T11:54:47;21.40;92.00
11744;DHT22;5929;51.906;7.674;2022-09-09T11:57:24;21.90;91.40
11744;DHT22;5929;51.906;7.674;2022-09-09T11:59:52;22.10;91.10
11744;DHT22;5929;51.906;7.674;2022-09-09T12:02:23;23.30;91.50
11744;DHT22;5929;51.906;7.674;2022-09-09T12:04:58;24.30;85.50
11744;DHT22;5929;51.906;7.674;2022-09-09T12:07:36;24.40;81.90
11744;DHT22;5929;51.906;7.674;2022-09-09T12:10:20;24.00;82.20
11744;DHT22;5929;51.906;7.674;2022-09-09T12:12:48;23.40;82.80
11744;DHT22;5929;51.906;7.674;2022-09-09T12:15:21;23.30;82.80
11744;DHT22;5929;51.906;7.674;2022-09-09T12:17:52;23.00;83.20
11744;DHT22;5929;51.906;7.674;2022-09-09T12:20:22;22.90;84.30
11744;DHT22;5929;51.906;7.674;2022-09-09T12:23:13;23.40;84.70
11744;DHT22;5929;51.906;7.674;2022-09-09T12:25:57;23.80;82.60
11744;DHT22;5929;51.906;7.674;2022-09-09T12:28:32;23.30;81.00
11744;DHT22;5929;51.906;7.674;2022-09-09T12:31:08;22.90;83.00
11744;DHT22;5929;51.906;7.674;2022-09-09T12:33:40;22.90;81.60
11744;DHT22;5929;51.906;7.674;2022-09-09T12:36:12;23.30;81.20
11744;DHT22;5929;51.906;7.674;2022-09-09T12:38:41;24.10;79.90
11744;DHT22;5929;51.906;7.674;2022-09-09T12:41:19;24.90;78.70
11744;DHT22;5929;51.906;7.674;2022-09-09T12:43:49;25.10;74.40
11744;DHT22;5929;51.906;7.674;2022-09-09T12:46:24;24.60;75.40
11744;DHT22;5929;51.906;7.674;2022-09-09T12:48:54;24.30;76.80
11744;DHT22;5929;51.906;7.674;2022-09-09T12:51:26;24.00;78.70
11744;DHT22;5929;51.906;7.674;2022-09-09T12:53:55;23.70;79.00
11744;DHT22;5929;51.906;7.674;2022-09-09T12:56:24;23.20;79.50
11744;DHT22;5929;51.906;7.674;2022-09-09T12:58:54;23.00;81.40
11744;DHT22;5929;51.906;7.674;2022-09-09T13:01:24;22.90;80.60
11744;DHT22;5929;51.906;7.674;2022-09-09T13:03:52;23.00;80.60
11744;DHT22;5929;51.906;7.674;2022-09-09T13:06:21;23.00;80.60
11744;DHT22;5929;51.906;7.674;2022-09-09T13:08:51;22.90;81.30
11744;DHT22;5929;51.906;7.674;2022-09-09T13:11:21;22.90;82.10
11744;DHT22;5929;51.906;7.674;2022-09-09T13:13:51;23.10;81.90
11744;DHT22;5929;51.906;7.674;2022-09-09T13:16:21;23.50;81.80
11744;DHT22;5929;51.906;7.674;2022-09-09T13:18:49;23.40;80.80
11744;DHT22;5929;51.906;7.674;2022-09-09T13:21:17;23.20;79.20
11744;DHT22;5929;51.906;7.674;2022-09-09T13:23:50;22.80;82.30
11744;DHT22;5929;51.906;7.674;2022-09-09T13:26:23;22.40;83.60
11744;DHT22;5929;51.906;7.674;2022-09-09T13:28:50;21.30;97.20
11744;DHT22;5929;51.906;7.674;2022-09-09T13:31:23;19.70;99.90
11744;DHT22;5929;51.906;7.674;2022-09-09T13:33:52;18.70;99.90
11744;DHT22;5929;51.906;7.674;2022-09-09T13:36:29;18.30;99.90
11744;DHT22;5929;51.906;7.674;2022-09-09T13:38:59;18.10;99.90
11744;DHT22;5929;51.906;7.674;2022-09-09T13:41:30;18.20;99.90
11744;DHT22;5929;51.906;7.674;2022-09-09T13:43:58;18.30;99.90
11744;DHT22;5929;51.906;7.674;2022-09-09T13:46:36;18.50;99.90
11744;DHT22;5929;51.906;7.674;2022-09-09T13:49:19;18.80;99.90
11744;DHT22;5929;51.906;7.674;2022-09-09T13:51:48;19.10;99.90
11744;DHT22;5929;51.906;7.674;2022-09-09T13:54:19;19.00;99.90
11744;DHT22;5929;51.906;7.674;2022-09-09T13:56:48;18.90;99.90
11744;DHT22;5929;51.906;7.674;2022-09-09T13:59:17;18.90;99.90
11744;DHT22;5929;51.906;7.674;2022-09-09T14:01:45;18.60;99.90
11744;DHT22;5929;51.906;7.674;2022-09-09T14:04:18;18.30;99.90
11744;DHT22;5929;51.906;7.674;2022-09-09T14:06:52;18.30;99.90
11744;DHT22;5929;51.906;7.674;2022-09-09T14:09:23;18.20;99.90
11744;DHT22;5929;51.906;7.674;2022-09-09T14:11:55;18.60;99.90
11744;DHT22;5929;51.906;7.674;2022-09-09T14:14:22;19.10;99.90
11744;DHT22;5929;51.906;7.674;2022-09-09T14:16:49;19.30;99.90
11744;DHT22;5929;51.906;7.674;2022-09-09T14:19:15;19.50;99.90
11744;DHT22;5929;51.906;7.674;2022-09-09T14:21:43;19.60;99.90
11744;DHT22;5929;51.906;7.674;2022-09-09T14:24:10;19.70;99.90
11744;DHT22;5929;51.906;7.674;2022-09-09T14:26:39;19.80;99.90
11744;DHT22;5929;51.906;7.674;2022-09-09T14:29:06;19.80;99.90
11744;DHT22;5929;51.906;7.674;2022-09-09T14:31:33;19.70;99.90
11744;DHT22;5929;51.906;7.674;2022-09-09T14:33:59;19.40;99.90
11744;DHT22;5929;51.906;7.674;2022-09-09T14:36:26;18.90;99.90
11744;DHT22;5929;51.906;7.674;2022-09-09T14:38:53;18.60;99.90
11744;DHT22;5929;51.906;7.674;2022-09-09T14:41:20;18.30;99.90
11744;DHT22;5929;51.906;7.674;2022-09-09T14:43:49;17.80;99.90
11744;DHT22;5929;51.906;7.674;2022-09-09T14:46:20;17.40;99.90
11744;DHT22;5929;51.906;7.674;2022-09-09T14:48:47;16.70;99.90
11744;DHT22;5929;51.906;7.674;2022-09-09T14:51:17;16.40;99.90
11744;DHT22;5929;51.906;7.674;2022-09-09T14:53:45;16.30;99.90
11744;DHT22;5929;51.906;7.674;2022-09-09T14:56:14;16.30;99.90
11744;DHT22;5929;51.906;7.674;2022-09-09T14:58:42;16.20;99.90
11744;DHT22;5929;51.906;7.674;2022-09-09T15:01:14;16.20;99.90
11744;DHT22;5929;51.906;7.674;2022-09-09T15:03:43;16.00;99.90
11744;DHT22;5929;51.906;7.674;2022-09-09T15:06:15;16.00;99.90
11744;DHT22;5929;51.906;7.674;2022-09-09T15:08:43;16.20;99.90
11744;DHT22;5929;51.906;7.674;2022-09-09T15:11:12;16.40;99.90
11744;DHT22;5929;51.906;7.674;2022-09-09T15:13:40;16.40;99.90
11744;DHT22;5929;51.906;7.674;2022-09-09T15:16:12;16.60;99.90
11744;DHT22;5929;51.906;7.674;2022-09-09T15:18:40;16.80;99.90
11744;DHT22;5929;51.906;7.674;2022-09-09T15:21:09;17.10;99.90
11744;DHT22;5929;51.906;7.674;2022-09-09T15:23:36;17.10;99.90
11744;DHT22;5929;51.906;7.674;2022-09-09T15:26:03;17.30;99.90
11744;DHT22;5929;51.906;7.674;2022-09-09T15:28:32;17.40;99.90
11744;DHT22;5929;51.906;7.674;2022-09-09T15:31:06;17.40;99.90
11744;DHT22;5929;51.906;7.674;2022-09-09T15:33:38;17.50;99.90
11744;DHT22;5929;51.906;7.674;2022-09-09T15:36:15;17.40;99.90
11744;DHT22;5929;51.906;7.674;2022-09-09T15:38:43;17.40;99.90
11744;DHT22;5929;51.906;7.674;2022-09-09T15:41:15;17.30;99.90
11744;DHT22;5929;51.906;7.674;2022-09-09T15:43:46;17.30;99.90
11744;DHT22;5929;51.906;7.674;2022-09-09T15:46:31;17.30;99.90
11744;DHT22;5929;51.906;7.674;2022-09-09T15:49:06;17.30;99.90
11744;DHT22;5929;51.906;7.674;2022-09-09T15:51:34;17.40;99.90
11744;DHT22;5929;51.906;7.674;2022-09-09T15:54:03;17.50;99.90
11744;DHT22;5929;51.906;7.674;2022-09-09T15:56:30;17.40;99.90
11744;DHT22;5929;51.906;7.674;2022-09-09T15:58:58;17.30;99.90
11744;DHT22;5929;51.906;7.674;2022-09-09T16:01:29;17.20;99.90
11744;DHT22;5929;51.906;7.674;2022-09-09T16:03:59;17.10;99.90
11744;DHT22;5929;51.906;7.674;2022-09-09T16:06:29;17.10;99.90
11744;DHT22;5929;51.906;7.674;2022-09-09T16:08:58;17.10;99.90
11744;DHT22;5929;51.906;7.674;2022-09-09T16:11:29;17.10;99.90
11744;DHT22;5929;51.906;7.674;2022-09-09T16:13:56;17.00;99.90